createdAt,value
2023-03-26T00:02:57.419Z,13.20
2023-03-26T00:06:07.805Z,13.68
2023-03-26T00:09:16.300Z,13.65
2023-03-26T00:12:24.195Z,12.23
2023-03-26T00:15:29.590Z,14.45
2023-03-26T00:18:35.298Z,14.50
2023-03-26T00:21:41.820Z,12.73
2023-03-26T00:24:49.658Z,14.25
2023-03-26T00:27:57.654Z,15.32
2023-03-26T00:31:04.322Z,13.68
2023-03-26T00:34:10.817Z,12.77
2023-03-26T00:37:16.348Z,19.80
2023-03-26T00:40:22.098Z,21.67
2023-03-26T00:43:33.402Z,22.20
2023-03-26T00:46:38.859Z,18.33
2023-03-26T00:49:47.401Z,16.90
2023-03-26T00:52:56.076Z,15.25
2023-03-26T00:59:09.509Z,13.38
2023-03-26T01:02:17.288Z,13.52
2023-03-26T01:05:44.610Z,13.63
2023-03-26T01:08:51.731Z,13.18
2023-03-26T01:11:57.317Z,14.00
2023-03-26T01:15:05.959Z,13.70
2023-03-26T01:18:14.503Z,15.38
2023-03-26T01:24:30.944Z,14.85
2023-03-26T01:27:39.298Z,13.18
2023-03-26T01:30:46.633Z,14.55
2023-03-26T01:33:55.006Z,15.13
2023-03-26T01:37:04.956Z,14.27
2023-03-26T01:40:16.480Z,16.38
2023-03-26T01:43:27.777Z,13.82
2023-03-26T01:46:36.614Z,14.57
2023-03-26T01:49:41.789Z,15.00
2023-03-26T01:52:47.286Z,16.05
2023-03-26T01:56:02.381Z,15.13
2023-03-26T01:59:12.010Z,13.13
2023-03-26T02:02:19.038Z,12.32
2023-03-26T02:05:27.377Z,13.50
2023-03-26T02:08:36.066Z,16.80
2023-03-26T02:11:44.760Z,12.65
2023-03-26T02:18:15.749Z,14.25
2023-03-26T02:21:23.102Z,13.57
2023-03-26T02:24:28.858Z,13.52
2023-03-26T02:27:38.662Z,12.98
2023-03-26T02:30:47.839Z,15.25
2023-03-26T02:33:54.174Z,13.25
2023-03-26T02:37:00.503Z,13.60
2023-03-26T02:40:06.574Z,14.10
2023-03-26T02:43:17.531Z,13.48
2023-03-26T02:46:23.201Z,12.75
2023-03-26T02:49:35.449Z,12.98
2023-03-26T02:52:41.107Z,12.02
2023-03-26T02:55:46.443Z,11.15
2023-03-26T02:58:54.889Z,11.40
2023-03-26T03:02:01.173Z,12.57
2023-03-26T03:05:10.026Z,12.23
2023-03-26T03:08:18.800Z,12.02
2023-03-26T03:11:53.369Z,11.53
2023-03-26T03:15:01.378Z,12.77
2023-03-26T03:18:08.107Z,12.75
2023-03-26T03:21:13.616Z,12.15
2023-03-26T03:24:19.127Z,11.57
2023-03-26T03:27:26.750Z,11.60
2023-03-26T03:30:42.572Z,11.20
2023-03-26T03:33:57.934Z,11.85
2023-03-26T03:37:04.237Z,11.48
2023-03-26T03:40:18.149Z,10.63
2023-03-26T03:43:23.679Z,10.20
2023-03-26T03:46:42.734Z,10.52
2023-03-26T03:49:48.397Z,11.27
2023-03-26T03:52:54.305Z,10.27
2023-03-26T03:56:00.112Z,11.00
2023-03-26T03:59:23.640Z,10.82
2023-03-26T04:02:35.199Z,11.32
2023-03-26T04:05:44.041Z,12.85
2023-03-26T04:08:49.908Z,11.80
2023-03-26T04:11:55.404Z,11.90
2023-03-26T04:15:21.396Z,13.35
2023-03-26T04:18:30.596Z,14.43
2023-03-26T04:21:43.205Z,14.23
2023-03-26T04:24:50.061Z,12.27
2023-03-26T04:28:21.048Z,15.52
2023-03-26T04:31:38.613Z,13.77
2023-03-26T04:34:48.560Z,15.68
2023-03-26T04:37:54.759Z,15.00
2023-03-26T04:41:12.957Z,14.50
2023-03-26T04:44:24.115Z,17.10
2023-03-26T04:47:43.535Z,15.73
2023-03-26T04:50:51.586Z,17.23
2023-03-26T04:54:01.134Z,16.88
2023-03-26T04:57:17.327Z,18.00
2023-03-26T05:00:57.898Z,16.05
2023-03-26T05:04:03.714Z,17.05
2023-03-26T05:07:12.153Z,16.65
2023-03-26T05:10:23.477Z,17.58
2023-03-26T05:13:33.246Z,18.15
2023-03-26T05:16:46.995Z,17.75
2023-03-26T05:19:52.424Z,18.98
2023-03-26T05:23:01.088Z,19.67
2023-03-26T05:26:09.384Z,19.30
2023-03-26T05:29:22.753Z,20.23
2023-03-26T05:32:30.967Z,19.60
2023-03-26T05:35:37.203Z,20.10
2023-03-26T05:42:00.058Z,21.70
2023-03-26T05:45:22.583Z,20.73
2023-03-26T05:48:29.392Z,22.38
2023-03-26T05:51:34.901Z,22.15
2023-03-26T05:55:00.478Z,22.42
2023-03-26T05:58:42.405Z,22.27
2023-03-26T06:02:10.646Z,24.15
2023-03-26T06:05:37.554Z,21.98
2023-03-26T06:09:00.943Z,23.65
2023-03-26T06:12:07.187Z,25.02
2023-03-26T06:15:16.087Z,22.63
2023-03-26T06:18:45.813Z,22.10
2023-03-26T06:22:09.961Z,23.15
2023-03-26T06:25:50.561Z,22.17
2023-03-26T06:29:19.295Z,22.00
2023-03-26T06:32:45.945Z,24.08
2023-03-26T06:35:57.130Z,23.63
2023-03-26T06:39:07.543Z,23.38
2023-03-26T06:42:17.259Z,24.23
2023-03-26T06:45:36.583Z,22.30
2023-03-26T06:49:22.942Z,23.73
2023-03-26T06:55:53.541Z,22.23
2023-03-26T06:59:17.684Z,21.50
2023-03-26T07:02:41.786Z,22.83
2023-03-26T07:06:08.635Z,21.60
2023-03-26T07:09:33.397Z,21.90
2023-03-26T07:13:08.614Z,22.02
2023-03-26T07:16:14.545Z,22.05
2023-03-26T07:19:38.615Z,21.35
2023-03-26T07:22:47.702Z,24.08
2023-03-26T07:25:55.836Z,22.08
2023-03-26T07:29:16.829Z,23.05
2023-03-26T07:32:49.576Z,19.83
2023-03-26T07:36:18.801Z,20.67
2023-03-26T07:39:47.982Z,20.63
2023-03-26T07:43:16.786Z,20.35
2023-03-26T07:46:41.783Z,18.38
2023-03-26T07:50:26.970Z,16.25
2023-03-26T07:53:38.770Z,14.73
2023-03-26T07:57:20.605Z,16.85
2023-03-26T08:03:54.975Z,14.23
2023-03-26T08:07:33.908Z,15.32
2023-03-26T08:11:03.184Z,15.65
2023-03-26T08:14:23.247Z,13.48
2023-03-26T08:17:33.182Z,13.52
2023-03-26T08:20:44.460Z,11.52
2023-03-26T08:23:55.617Z,10.88
2023-03-26T08:27:04.897Z,10.73
2023-03-26T08:30:18.176Z,10.43
2023-03-26T08:33:24.542Z,10.23
2023-03-26T08:36:30.007Z,9.80
2023-03-26T08:39:35.893Z,10.23
2023-03-26T08:43:05.061Z,9.80
2023-03-26T08:46:30.714Z,9.50
2023-03-26T08:49:53.300Z,10.52
2023-03-26T08:53:11.201Z,10.10
2023-03-26T08:56:23.597Z,9.77
2023-03-26T08:59:49.680Z,10.43
2023-03-26T09:03:05.297Z,10.80
2023-03-26T09:06:20.903Z,10.15
2023-03-26T09:09:44.099Z,9.15
2023-03-26T09:12:59.067Z,9.88
2023-03-26T09:16:24.531Z,8.27
2023-03-26T09:19:42.770Z,8.15
2023-03-26T09:23:08.997Z,8.30
2023-03-26T09:26:21.608Z,7.97
2023-03-26T09:29:47.776Z,8.13
2023-03-26T09:33:12.145Z,7.55
2023-03-26T09:36:25.324Z,7.00
2023-03-26T09:39:39.638Z,6.85
2023-03-26T09:42:47.608Z,5.63
2023-03-26T09:46:01.108Z,5.63
2023-03-26T09:49:23.289Z,5.97
2023-03-26T09:52:43.363Z,5.60
2023-03-26T09:55:57.745Z,5.65
2023-03-26T09:59:12.931Z,5.28
2023-03-26T10:02:23.583Z,4.70
2023-03-26T10:05:54.036Z,5.10
2023-03-26T10:09:05.016Z,5.35
2023-03-26T10:12:17.792Z,5.10
2023-03-26T10:15:32.276Z,5.53
2023-03-26T10:18:45.709Z,5.93
2023-03-26T10:21:58.074Z,6.15
2023-03-26T10:25:08.557Z,5.38
2023-03-26T10:28:24.757Z,5.65
2023-03-26T10:31:42.530Z,5.47
2023-03-26T10:38:04.725Z,5.78
2023-03-26T10:41:14.790Z,6.00
2023-03-26T10:44:36.999Z,5.03
2023-03-26T10:47:53.545Z,5.35
2023-03-26T10:51:08.064Z,5.13
2023-03-26T10:54:17.844Z,5.28
2023-03-26T10:57:28.695Z,5.60
2023-03-26T11:00:41.133Z,5.57
2023-03-26T11:03:52.269Z,6.03
2023-03-26T11:07:03.313Z,5.47
2023-03-26T11:10:12.071Z,5.95
2023-03-26T11:13:21.016Z,5.88
2023-03-26T11:16:33.767Z,5.88
2023-03-26T11:19:42.629Z,6.10
2023-03-26T11:22:57.166Z,5.85
2023-03-26T11:26:10.061Z,6.20
2023-03-26T11:29:32.384Z,6.28
2023-03-26T11:32:44.143Z,6.30
2023-03-26T11:35:51.211Z,6.97
2023-03-26T11:38:58.546Z,7.55
2023-03-26T11:42:10.181Z,9.25
2023-03-26T11:45:23.425Z,8.60
2023-03-26T11:48:34.892Z,8.80
2023-03-26T11:51:41.205Z,10.13
2023-03-26T11:54:48.709Z,11.73
2023-03-26T11:57:57.108Z,12.00
2023-03-26T12:01:07.107Z,12.88
2023-03-26T12:04:17.642Z,13.73
2023-03-26T12:07:24.405Z,15.07
2023-03-26T12:10:32.157Z,16.00
2023-03-26T12:13:39.220Z,16.20
2023-03-26T12:16:59.597Z,17.30
2023-03-26T12:20:25.675Z,19.20
2023-03-26T12:23:39.267Z,18.85
2023-03-26T12:26:46.690Z,17.02
2023-03-26T12:29:55.616Z,16.38
2023-03-26T12:33:03.965Z,16.77
2023-03-26T12:36:23.680Z,16.00
2023-03-26T12:40:09.853Z,15.75
2023-03-26T12:44:49.273Z,15.57
2023-03-26T12:47:59.506Z,15.23
2023-03-26T12:49:56.093Z,16.15
2023-03-26T12:53:11.096Z,15.95
2023-03-26T12:56:23.207Z,16.88
2023-03-26T12:59:37.321Z,15.68
2023-03-26T13:02:59.690Z,16.73
2023-03-26T13:06:11.648Z,16.27
2023-03-26T13:09:25.956Z,16.10
2023-03-26T13:12:36.314Z,16.55
2023-03-26T13:15:44.572Z,15.75
2023-03-26T13:18:53.826Z,16.75
2023-03-26T13:22:06.270Z,16.08
2023-03-26T13:25:20.132Z,15.50
2023-03-26T13:28:31.578Z,14.10
2023-03-26T13:31:42.784Z,14.85
2023-03-26T13:35:04.869Z,13.02
2023-03-26T13:38:15.139Z,12.70
2023-03-26T13:41:29.869Z,12.55
2023-03-26T13:44:39.717Z,12.77
2023-03-26T13:47:48.390Z,12.45
2023-03-26T13:50:57.882Z,11.82
2023-03-26T13:54:04.495Z,11.88
2023-03-26T13:57:15.743Z,11.43
2023-03-26T14:00:22.446Z,11.82
2023-03-26T14:03:32.600Z,12.60
2023-03-26T14:06:47.072Z,11.95
2023-03-26T14:09:55.100Z,12.30
2023-03-26T14:13:04.052Z,12.75
2023-03-26T14:16:14.332Z,12.77
2023-03-26T14:19:37.594Z,12.00
2023-03-26T14:22:46.814Z,12.05
2023-03-26T14:26:04.466Z,12.90
2023-03-26T14:29:22.249Z,11.77
2023-03-26T14:32:33.037Z,13.00
2023-03-26T14:35:42.102Z,12.70
2023-03-26T14:39:02.569Z,12.40
2023-03-26T14:42:11.737Z,12.35
2023-03-26T14:45:31.584Z,11.77
2023-03-26T14:48:55.051Z,12.85
2023-03-26T14:52:02.569Z,12.40
2023-03-26T14:55:13.997Z,11.93
2023-03-26T14:58:34.407Z,11.18
2023-03-26T15:01:52.767Z,10.68
2023-03-26T15:05:24.200Z,9.73
2023-03-26T15:08:49.907Z,9.38
2023-03-26T15:12:12.966Z,9.85
2023-03-26T15:15:37.560Z,9.82
2023-03-26T15:18:56.271Z,8.98
2023-03-26T15:22:16.676Z,9.23
2023-03-26T15:25:49.004Z,9.55
2023-03-26T15:29:06.710Z,9.52
2023-03-26T15:32:26.311Z,9.30
2023-03-26T15:35:53.814Z,9.25
2023-03-26T15:39:18.170Z,9.82
2023-03-26T15:42:30.036Z,8.57
2023-03-26T15:45:40.056Z,9.20
2023-03-26T15:49:02.868Z,11.85
2023-03-26T15:52:12.957Z,9.27
2023-03-26T15:55:26.909Z,10.27
2023-03-26T15:58:34.889Z,8.77
2023-03-26T16:01:47.882Z,8.85
2023-03-26T16:04:55.968Z,8.23
2023-03-26T16:08:07.914Z,9.07
2023-03-26T16:11:13.333Z,9.65
2023-03-26T16:14:24.317Z,9.20
2023-03-26T16:17:55.005Z,9.07
2023-03-26T16:21:06.554Z,8.98
2023-03-26T16:24:21.472Z,8.88
2023-03-26T16:27:33.884Z,9.20
2023-03-26T16:30:39.850Z,8.43
2023-03-26T16:33:51.934Z,8.43
2023-03-26T16:36:58.298Z,7.82
2023-03-26T16:40:18.707Z,7.88
2023-03-26T16:43:39.102Z,8.68
2023-03-26T16:46:52.472Z,8.85
2023-03-26T17:30:04.056Z,8.73
2023-03-26T17:33:18.192Z,8.85
2023-03-26T17:36:34.341Z,8.48
2023-03-26T17:40:12.722Z,8.82
2023-03-26T17:43:32.957Z,8.52
2023-03-26T17:46:42.661Z,8.27
2023-03-26T17:49:49.474Z,8.60
2023-03-26T17:52:59.556Z,8.60
2023-03-26T17:56:07.461Z,8.95
2023-03-26T17:59:18.838Z,9.52
2023-03-26T18:02:32.273Z,8.77
2023-03-26T18:05:37.837Z,9.98
2023-03-26T18:08:50.837Z,10.85
2023-03-26T18:12:06.434Z,10.82
2023-03-26T18:15:27.077Z,10.27
2023-03-26T18:18:37.406Z,11.68
2023-03-26T18:21:43.991Z,10.73
2023-03-26T18:24:49.581Z,10.25
2023-03-26T18:27:55.293Z,10.85
2023-03-26T18:31:10.263Z,11.15
2023-03-26T18:34:19.883Z,10.70
2023-03-26T18:37:26.700Z,10.55
2023-03-26T18:40:33.717Z,10.93
2023-03-26T18:43:44.564Z,10.73
2023-03-26T18:46:50.167Z,10.43
2023-03-26T18:49:59.635Z,9.95
2023-03-26T18:53:05.265Z,9.77
2023-03-26T18:56:23.740Z,8.57
2023-03-26T18:59:32.286Z,8.38
2023-03-26T19:02:38.182Z,8.43
2023-03-26T19:05:46.616Z,7.13
2023-03-26T19:11:59.208Z,6.88
2023-03-26T19:15:08.131Z,6.90
2023-03-26T19:18:19.677Z,7.95
2023-03-26T19:21:28.316Z,7.90
2023-03-26T19:24:34.091Z,7.50
2023-03-26T19:27:39.454Z,8.25
2023-03-26T19:30:48.480Z,9.68
2023-03-26T19:33:58.113Z,10.57
2023-03-26T19:37:09.915Z,10.00
2023-03-26T19:40:17.131Z,10.48
2023-03-26T19:43:22.870Z,13.05
2023-03-26T19:46:29.184Z,13.00
2023-03-26T19:49:35.106Z,15.57
2023-03-26T19:52:43.247Z,15.13
2023-03-26T19:55:59.141Z,16.65
2023-03-26T19:59:05.586Z,15.50
2023-03-26T20:02:13.426Z,17.83
2023-03-26T20:05:23.485Z,10.75
2023-03-26T20:08:31.350Z,11.80
2023-03-26T20:11:39.351Z,11.95
2023-03-26T20:14:45.832Z,11.70
2023-03-26T20:17:53.140Z,10.15
2023-03-26T20:20:58.909Z,10.73
2023-03-26T20:24:12.570Z,11.68
2023-03-26T20:27:18.644Z,11.65
2023-03-26T20:30:36.972Z,10.13
2023-03-26T20:33:43.045Z,11.48
2023-03-26T20:36:54.689Z,11.35
2023-03-26T20:40:07.025Z,12.25
2023-03-26T20:43:14.703Z,11.13
2023-03-26T20:46:22.125Z,11.93
2023-03-26T20:49:29.569Z,9.32
2023-03-26T20:52:35.612Z,11.23
2023-03-26T20:55:44.853Z,9.82
2023-03-26T20:59:03.483Z,11.18
2023-03-26T21:02:13.426Z,10.13
2023-03-26T21:05:24.623Z,9.13
2023-03-26T21:08:30.457Z,9.85
2023-03-26T21:11:42.582Z,10.85
2023-03-26T21:14:48.039Z,10.00
2023-03-26T21:17:55.468Z,10.02
2023-03-26T21:21:18.212Z,10.00
2023-03-26T21:24:33.413Z,9.52
2023-03-26T21:27:44.908Z,9.93
2023-03-26T21:30:51.360Z,9.55
2023-03-26T21:33:57.170Z,9.23
2023-03-26T21:37:02.711Z,9.43
2023-03-26T21:40:15.806Z,9.85
2023-03-26T21:43:25.049Z,8.45
2023-03-26T21:46:30.682Z,8.77
2023-03-26T21:49:37.292Z,8.15
2023-03-26T21:52:47.391Z,7.63
2023-03-26T21:55:58.548Z,7.38
2023-03-26T21:59:10.898Z,7.72
2023-03-26T22:02:19.650Z,7.65
2023-03-26T22:05:28.154Z,6.97
2023-03-26T22:08:37.033Z,6.63
2023-03-26T22:11:42.855Z,5.93
2023-03-26T22:14:51.278Z,5.30
2023-03-26T22:17:57.284Z,6.57
2023-03-26T22:21:03.090Z,6.05
2023-03-26T22:24:09.161Z,6.47
2023-03-26T22:27:16.372Z,5.82
2023-03-26T22:30:24.617Z,6.00
2023-03-26T22:33:29.926Z,6.68
2023-03-26T22:36:36.397Z,6.43
2023-03-26T22:39:43.246Z,6.72
2023-03-26T22:42:49.123Z,5.57
2023-03-26T22:45:57.130Z,5.43
2023-03-26T22:49:02.836Z,5.40
2023-03-26T22:52:08.266Z,6.22
2023-03-26T22:55:14.057Z,6.50
2023-03-26T22:58:33.943Z,6.60
2023-03-26T23:01:42.308Z,7.43
2023-03-26T23:04:48.954Z,7.15
2023-03-26T23:07:55.467Z,6.43
2023-03-26T23:11:01.587Z,6.25
2023-03-26T23:14:07.686Z,6.72
2023-03-26T23:17:16.116Z,6.93
2023-03-26T23:20:22.002Z,8.00
2023-03-26T23:23:29.105Z,6.40
2023-03-26T23:26:43.964Z,7.13
2023-03-26T23:29:55.784Z,6.00
2023-03-26T23:33:04.208Z,6.50
2023-03-26T23:36:11.607Z,6.35
2023-03-26T23:39:17.355Z,6.10
2023-03-26T23:42:29.242Z,7.22
2023-03-26T23:45:35.381Z,8.25
2023-03-26T23:48:44.636Z,9.68
2023-03-26T23:51:51.806Z,10.40
2023-03-26T23:54:57.116Z,11.25
2023-03-26T23:58:02.677Z,11.30
